Time;durP1;ratioP1;P1;durP2;ratioP2;P2;SDS_P1;SDS_P2;PMS_P1;PMS_P2;Temp;Humidity;BMP_temperature;BMP_pressure;BME280_temperature;BME280_humidity;BME280_pressure;Samples;Min_cycle;Max_cycle;Signal;HPM_P1;HPM_P2
2021/07/11 00:00:33;;;;;;;14.15;9.98;;;;;;;18.70;85.97;97659.55;1750558;82;20966;-75
2021/07/11 00:03:02;;;;;;;15.75;10.55;;;;;;;18.68;85.86;97657.94;1750068;82;21494;-75
2021/07/11 00:05:29;;;;;;;14.15;9.73;;;;;;;18.65;86.51;97652.77;1734835;82;21032;-75
2021/07/11 00:07:56;;;;;;;13.95;9.60;;;;;;;18.58;86.79;97654.53;1686597;85;21070;-75
2021/07/11 00:10:24;;;;;;;12.90;9.60;;;;;;;18.55;86.27;97655.20;1689737;85;21493;-77
2021/07/11 00:12:51;;;;;;;12.23;10.95;;;;;;;18.50;86.30;97657.34;1750878;82;21039;-77
2021/07/11 00:15:22;;;;;;;12.95;10.53;;;;;;;18.45;85.90;97654.52;1750859;82;21067;-77
2021/07/11 00:17:51;;;;;;;16.25;9.55;;;;;;;18.40;86.91;97648.56;1750814;82;21449;-76
2021/07/11 00:20:19;;;;;;;11.95;9.48;;;;;;;18.36;86.53;97652.91;1685916;85;21057;-77
2021/07/11 00:22:45;;;;;;;15.30;9.70;;;;;;;18.32;87.64;97643.72;1685100;85;21121;-77
2021/07/11 00:25:14;;;;;;;11.97;9.00;;;;;;;18.31;87.40;97642.01;1678692;85;21456;-77
2021/07/11 00:27:43;;;;;;;12.15;8.73;;;;;;;18.33;86.93;97642.78;1678541;84;21063;-76
2021/07/11 00:30:12;;;;;;;12.70;9.35;;;;;;;18.35;87.38;97638.63;1732697;82;20989;-76
2021/07/11 00:32:39;;;;;;;11.55;8.13;;;;;;;18.37;87.06;97634.04;1716324;82;21007;-76
2021/07/11 00:35:07;;;;;;;11.05;8.60;;;;;;;18.40;87.07;97635.66;1722298;82;20997;-76
2021/07/11 00:37:34;;;;;;;13.58;9.13;;;;;;;18.42;87.17;97628.34;1726417;82;22069;-76
2021/07/11 00:40:05;;;;;;;11.80;8.18;;;;;;;18.42;86.84;97635.05;1742916;82;21040;-75
2021/07/11 00:42:32;;;;;;;10.95;8.85;;;;;;;18.44;86.46;97630.47;1742904;82;20973;-75
2021/07/11 00:44:58;;;;;;;10.28;7.58;;;;;;;18.47;86.32;97627.08;1742576;82;21128;-75
2021/07/11 00:47:25;;;;;;;8.70;7.80;;;;;;;18.48;85.67;97630.64;1742898;82;21007;-76
2021/07/11 00:49:54;;;;;;;11.85;8.50;;;;;;;18.41;85.67;97623.95;1742948;82;21447;-76
2021/07/11 00:52:21;;;;;;;9.73;8.00;;;;;;;18.40;85.69;97628.95;1742742;82;21458;-75
2021/07/11 00:54:47;;;;;;;14.25;8.95;;;;;;;18.40;85.63;97628.45;1727687;82;21467;-75
2021/07/11 00:57:14;;;;;;;10.45;8.38;;;;;;;18.41;85.33;97623.48;1716786;82;21031;-75
2021/07/11 00:59:43;;;;;;;12.35;9.03;;;;;;;18.40;84.84;97620.40;1715567;84;20997;-75
2021/07/11 01:02:20;;;;;;;12.13;9.60;;;;;;;18.41;84.24;97615.44;1715859;84;21045;-75
2021/07/11 01:05:06;;;;;;;11.48;9.18;;;;;;;18.31;85.69;97617.86;1715740;83;20990;-75
2021/07/11 01:07:38;;;;;;;17.12;9.85;;;;;;;18.25;85.35;97615.60;1715809;84;21021;-75
2021/07/11 01:10:23;;;;;;;14.68;9.50;;;;;;;18.21;85.47;97618.11;1715739;82;21021;-75
2021/07/11 01:12:55;;;;;;;13.65;9.08;;;;;;;18.14;86.08;97607.43;1715475;84;21001;-75
2021/07/11 01:15:24;;;;;;;11.28;9.33;;;;;;;18.10;85.42;97607.25;1715750;84;21053;-75
2021/07/11 01:18:01;;;;;;;9.85;8.48;;;;;;;18.09;84.93;97612.24;1715752;84;21014;-76
2021/07/11 01:20:39;;;;;;;9.13;8.20;;;;;;;18.05;84.78;97607.51;1742497;82;20976;-75
2021/07/11 01:23:11;;;;;;;12.60;9.50;;;;;;;18.02;84.48;97610.41;1742870;82;21017;-76
2021/07/11 01:25:48;;;;;;;9.78;8.78;;;;;;;17.96;84.77;97608.98;1742880;82;20977;-75
2021/07/11 01:28:22;;;;;;;12.88;8.68;;;;;;;17.90;85.38;97607.56;1730175;82;21088;-75
2021/07/11 01:30:53;;;;;;;13.75;9.45;;;;;;;17.90;84.88;97612.08;1712855;84;21532;-76
2021/07/11 01:33:24;;;;;;;11.53;9.23;;;;;;;17.87;84.50;97606.91;1713339;84;21109;-75
2021/07/11 01:35:51;;;;;;;11.97;9.78;;;;;;;17.87;84.47;97610.47;1713869;82;20991;-76
2021/07/11 01:38:21;;;;;;;12.25;9.15;;;;;;;17.85;84.35;97607.51;1713437;84;22187;-75
2021/07/11 01:40:50;;;;;;;11.25;9.03;;;;;;;17.80;84.66;97607.33;1713428;84;20996;-76
2021/07/11 01:43:21;;;;;;;14.83;9.58;;;;;;;17.75;84.58;97602.75;1716083;82;21078;-76
2021/07/11 01:45:53;;;;;;;11.97;9.08;;;;;;;17.75;85.20;97601.88;1723744;82;20999;-76
2021/07/11 01:48:20;;;;;;;9.40;8.40;;;;;;;17.75;84.80;97600.53;1713394;83;21067;-77
2021/07/11 01:50:53;;;;;;;11.38;8.08;;;;;;;17.75;84.92;97606.77;1713513;84;20982;-76
2021/07/11 01:53:31;;;;;;;8.78;7.85;;;;;;;17.76;85.02;97604.92;1705613;82;21009;-75
2021/07/11 01:55:58;;;;;;;10.63;8.28;;;;;;;17.74;85.11;97602.38;1693365;84;21052;-76
2021/07/11 01:58:26;;;;;;;11.10;8.33;;;;;;;17.75;85.42;97613.94;1706364;82;21046;-76
2021/07/11 02:00:54;;;;;;;12.93;8.45;;;;;;;17.73;85.43;97610.01;1713601;84;21006;-76
2021/07/11 02:03:26;;;;;;;8.55;7.42;;;;;;;17.75;86.02;97621.97;1714939;82;21497;-76
2021/07/11 02:06:09;;;;;;;11.15;7.40;;;;;;;17.76;86.16;97616.98;1719239;82;21395;-76
2021/07/11 02:08:41;;;;;;;9.73;7.97;;;;;;;17.80;85.93;97626.09;1711729;82;21017;-77
2021/07/11 02:11:12;;;;;;;15.88;7.97;;;;;;;17.84;85.77;97625.86;1731604;82;20979;-76
2021/07/11 02:13:49;;;;;;;10.27;8.03;;;;;;;17.83;85.80;97630.38;1716036;83;21475;-77
2021/07/11 02:16:32;;;;;;;10.05;7.50;;;;;;;17.80;85.73;97624.75;1715760;84;21030;-77
2021/07/11 02:19:02;;;;;;;9.90;8.05;;;;;;;17.79;85.92;97628.86;1715032;82;21030;-77
2021/07/11 02:21:31;;;;;;;10.55;7.90;;;;;;;17.75;85.86;97630.02;1713363;83;21000;-76
2021/07/11 02:24:02;;;;;;;12.90;8.78;;;;;;;17.69;86.13;97628.61;1719213;83;20983;-76
2021/07/11 02:26:31;;;;;;;10.45;8.75;;;;;;;17.65;86.28;97626.59;1726525;83;21081;-75
2021/07/11 02:28:59;;;;;;;10.60;9.13;;;;;;;17.68;86.46;97629.55;1729844;82;21013;-75
2021/07/11 02:31:28;;;;;;;11.97;8.78;;;;;;;17.66;86.32;97633.66;1721080;83;20986;-75
2021/07/11 02:33:56;;;;;;;14.50;9.63;;;;;;;17.66;85.94;97635.50;1733566;82;21044;-75
2021/07/11 02:36:27;;;;;;;11.45;8.65;;;;;;;17.62;85.79;97633.97;1702902;83;21422;-75
2021/07/11 02:39:12;;;;;;;15.55;9.88;;;;;;;17.59;85.76;97639.52;1704207;84;20988;-75
2021/07/11 02:41:48;;;;;;;11.03;9.75;;;;;;;17.51;85.63;97634.19;1705131;84;21063;-75
2021/07/11 02:44:18;;;;;;;12.47;9.43;;;;;;;17.49;85.67;97641.94;1704979;84;21056;-74
2021/07/11 02:46:56;;;;;;;11.60;9.45;;;;;;;17.44;85.87;97634.67;1705100;84;21514;-75
2021/07/11 02:49:27;;;;;;;12.63;10.05;;;;;;;17.39;85.75;97639.84;1705105;84;21052;-75
2021/07/11 02:51:59;;;;;;;12.30;9.40;;;;;;;17.32;86.49;97639.86;1705030;84;21048;-75
2021/07/11 02:54:31;;;;;;;10.70;9.60;;;;;;;17.31;85.98;97643.47;1662565;86;21053;-76
2021/07/11 02:57:05;;;;;;;13.22;9.88;;;;;;;17.25;86.20;97638.05;1676881;85;21012;-76
2021/07/11 02:59:35;;;;;;;14.03;9.78;;;;;;;17.24;87.10;97637.64;1690506;84;21056;-76
2021/07/11 03:02:06;;;;;;;11.30;10.10;;;;;;;17.26;86.49;97642.44;1706045;83;21014;-76
2021/07/11 03:04:44;;;;;;;14.93;9.75;;;;;;;17.27;87.53;97640.14;1676797;86;21082;-74
2021/07/11 03:07:12;;;;;;;10.20;9.13;;;;;;;17.26;88.36;97640.22;1652123;86;21111;-75
2021/07/11 03:09:42;;;;;;;13.22;8.50;;;;;;;17.26;87.22;97635.74;1676865;84;21066;-75
2021/07/11 03:12:12;;;;;;;10.38;8.75;;;;;;;17.26;87.01;97638.42;1678249;85;21065;-75
2021/07/11 03:14:39;;;;;;;13.60;8.33;;;;;;;17.28;87.66;97643.19;1676788;86;21044;-75
2021/07/11 03:17:09;;;;;;;10.78;8.45;;;;;;;17.32;87.38;97643.88;1676765;86;21005;-76
2021/07/11 03:19:40;;;;;;;13.05;9.20;;;;;;;17.36;87.27;97637.84;1692006;85;21415;-76
2021/07/11 03:22:09;;;;;;;10.65;8.50;;;;;;;17.40;87.17;97640.72;1676765;86;20981;-76
2021/07/11 03:24:37;;;;;;;10.88;8.48;;;;;;;17.41;86.78;97639.25;1654385;85;21033;-75
2021/07/11 03:27:05;;;;;;;10.30;8.05;;;;;;;17.45;86.50;97639.06;1689966;85;21001;-75
2021/07/11 03:30:01;;;;;;;11.08;7.50;;;;;;;17.51;86.71;97642.22;1670406;85;20999;-75
2021/07/11 03:32:23;;;;;;;7.95;7.15;;;;;;;17.58;86.34;97640.02;1664229;86;21474;-75
2021/07/11 03:34:52;;;;;;;10.58;7.35;;;;;;;17.66;85.36;97638.18;1663699;85;21483;-75
2021/07/11 03:37:24;;;;;;;10.55;7.65;;;;;;;17.70;84.99;97640.17;1738252;82;21077;-75
2021/07/11 03:39:53;;;;;;;12.20;8.38;;;;;;;17.72;84.59;97645.81;1723985;83;21004;-75
2021/07/11 03:42:24;;;;;;;9.88;7.67;;;;;;;17.77;84.49;97645.53;1728578;83;20986;-75
2021/07/11 03:44:55;;;;;;;9.00;8.10;;;;;;;17.80;84.15;97642.17;1715461;82;20993;-76
2021/07/11 03:47:24;;;;;;;10.10;8.38;;;;;;;17.83;84.02;97643.79;1709166;84;21049;-75
2021/07/11 03:49:54;;;;;;;12.35;8.20;;;;;;;17.87;83.68;97641.77;1709284;84;21098;-75
2021/07/11 03:52:25;;;;;;;10.08;8.40;;;;;;;17.89;84.02;97642.54;1709191;84;21029;-75
2021/07/11 03:54:55;;;;;;;10.45;7.90;;;;;;;17.90;84.21;97643.75;1709339;84;21004;-75
2021/07/11 03:57:30;;;;;;;12.55;8.20;;;;;;;17.92;83.72;97639.64;1709754;82;21006;-74
2021/07/11 03:59:58;;;;;;;11.95;9.05;;;;;;;17.92;83.10;97633.80;1720627;82;20942;-75
2021/07/11 04:02:27;;;;;;;28.98;21.70;;;;;;;17.91;82.66;97641.48;1738668;82;21454;-75
2021/07/11 04:04:57;;;;;;;11.35;9.23;;;;;;;17.93;82.49;97635.98;1737984;82;21079;-75
2021/07/11 04:07:26;;;;;;;8.98;7.42;;;;;;;17.94;82.37;97647.95;1729960;82;21018;-75
2021/07/11 04:09:54;;;;;;;9.93;8.13;;;;;;;17.93;81.97;97647.58;1732033;82;21407;-75
2021/07/11 04:12:21;;;;;;;11.43;8.03;;;;;;;17.94;81.86;97642.59;1738590;82;21040;-75
2021/07/11 04:14:49;;;;;;;10.35;8.90;;;;;;;17.96;81.86;97654.56;1738222;82;21038;-75
2021/07/11 04:17:17;;;;;;;12.28;9.28;;;;;;;17.96;81.44;97651.88;1729474;82;21060;-75
2021/07/11 04:19:45;;;;;;;11.43;8.73;;;;;;;17.97;81.49;97658.96;1716876;83;21486;-75
2021/07/11 04:22:15;;;;;;;12.98;9.45;;;;;;;17.96;81.38;97657.25;1713913;84;21470;-75
2021/07/11 04:24:43;;;;;;;10.38;8.70;;;;;;;17.96;81.56;97658.59;1719078;82;21478;-75
2021/07/11 04:27:11;;;;;;;50.23;36.55;;;;;;;17.97;81.86;97656.28;1715741;82;22454;-75
2021/07/11 04:29:38;;;;;;;13.35;11.90;;;;;;;17.99;81.53;97653.50;1713197;83;21030;-76
2021/07/11 04:32:06;;;;;;;13.93;9.38;;;;;;;18.01;81.47;97653.78;1714843;82;21450;-76
2021/07/11 04:34:34;;;;;;;10.72;9.18;;;;;;;18.05;81.48;97659.33;1713962;82;21003;-75
2021/07/11 04:37:06;;;;;;;9.63;8.63;;;;;;;18.10;82.32;97659.04;1713322;83;21476;-75
2021/07/11 04:39:34;;;;;;;10.35;8.80;;;;;;;18.18;81.87;97657.19;1713395;84;21033;-75
2021/07/11 04:42:01;;;;;;;17.02;8.75;;;;;;;18.25;82.07;97657.65;1710408;84;20998;-75
2021/07/11 04:44:28;;;;;;;12.70;8.80;;;;;;;18.32;82.19;97665.68;1707719;84;20998;-75
2021/07/11 04:46:54;;;;;;;10.15;8.03;;;;;;;18.38;82.03;97663.92;1707886;84;21041;-75
2021/07/11 04:49:22;;;;;;;11.73;7.97;;;;;;;18.47;81.95;97668.67;1707945;84;21018;-75
2021/07/11 04:51:54;;;;;;;11.33;8.28;;;;;;;18.57;81.90;97665.38;1719315;83;21008;-75
2021/07/11 04:54:21;;;;;;;8.75;7.85;;;;;;;18.63;81.70;97661.42;1721270;83;21044;-75
2021/07/11 04:56:48;;;;;;;10.40;8.05;;;;;;;18.71;81.76;97665.77;1721310;83;21032;-74
2021/07/11 04:59:14;;;;;;;9.73;7.53;;;;;;;18.81;81.70;97668.19;1742165;82;21420;-74
2021/07/11 05:01:41;;;;;;;10.75;8.18;;;;;;;18.91;81.04;97675.61;1742909;82;21411;-74
2021/07/11 05:04:08;;;;;;;11.50;8.30;;;;;;;18.96;81.22;97667.63;1707277;84;21046;-74
2021/07/11 05:06:34;;;;;;;9.05;8.15;;;;;;;19.03;81.12;97662.69;1743174;82;20989;-74
2021/07/11 05:09:03;;;;;;;10.72;8.35;;;;;;;19.09;80.75;97670.34;1746805;82;20976;-74
2021/07/11 05:11:29;;;;;;;11.53;8.30;;;;;;;19.19;80.80;97673.23;1748497;82;21044;-74
2021/07/11 05:13:56;;;;;;;14.15;9.20;;;;;;;19.25;80.44;97678.66;1748619;82;20993;-74
2021/07/11 05:16:23;;;;;;;11.03;9.00;;;;;;;19.30;80.30;97671.14;1748597;82;20985;-74
2021/07/11 05:18:49;;;;;;;10.58;9.35;;;;;;;19.33;79.74;97664.21;1748563;82;21336;-75
2021/07/11 05:21:16;;;;;;;9.98;8.55;;;;;;;19.38;79.82;97662.53;1748563;82;21044;-75
2021/07/11 05:23:43;;;;;;;9.90;8.90;;;;;;;19.43;79.44;97659.53;1748543;82;21044;-75
2021/07/11 05:26:09;;;;;;;12.47;9.23;;;;;;;19.44;79.33;97654.52;1731314;82;21554;-75
2021/07/11 05:28:36;;;;;;;11.10;9.55;;;;;;;19.50;79.36;97656.29;1729130;82;21102;-75
2021/07/11 05:31:03;;;;;;;15.60;9.85;;;;;;;19.57;79.27;97645.09;1729536;82;21037;-74
2021/07/11 05:33:29;;;;;;;10.00;9.03;;;;;;;19.63;79.06;97650.02;1729034;83;21104;-75
2021/07/11 05:35:55;;;;;;;11.38;8.88;;;;;;;19.70;78.87;97654.47;1729304;83;21004;-74
2021/07/11 05:38:22;;;;;;;11.73;9.65;;;;;;;19.75;78.57;97650.95;1729166;82;21057;-75
2021/07/11 05:40:48;;;;;;;13.00;10.32;;;;;;;19.81;78.36;97646.97;1729075;82;20965;-74
2021/07/11 05:43:16;;;;;;;12.45;9.28;;;;;;;19.86;78.43;97648.36;1722584;82;21021;-75
2021/07/11 05:45:43;;;;;;;10.15;9.05;;;;;;;19.92;78.33;97645.20;1717788;82;20966;-75
2021/07/11 05:48:09;;;;;;;10.20;8.83;;;;;;;20.00;78.27;97637.95;1722318;82;21022;-74
2021/07/11 05:50:36;;;;;;;10.82;9.15;;;;;;;20.07;78.16;97638.83;1721683;83;21523;-73
2021/07/11 05:53:04;;;;;;;12.33;8.63;;;;;;;20.14;78.03;97640.94;1721639;83;21054;-73
2021/07/11 05:55:32;;;;;;;13.98;9.40;;;;;;;20.19;77.12;97640.62;1721831;83;21006;-74
2021/07/11 05:57:59;;;;;;;14.73;9.08;;;;;;;20.25;77.75;97642.84;1722886;82;22126;-73
2021/07/11 06:00:26;;;;;;;13.28;8.90;;;;;;;20.32;77.75;97643.23;1687226;85;21041;-73
2021/07/11 06:02:52;;;;;;;10.70;8.70;;;;;;;20.38;77.67;97643.27;1687534;85;21009;-73
2021/07/11 06:05:19;;;;;;;9.65;8.70;;;;;;;20.42;77.52;97633.48;1687420;85;20997;-73
2021/07/11 06:07:45;;;;;;;12.13;8.95;;;;;;;20.50;77.34;97640.97;1687643;84;21006;-73
2021/07/11 06:10:12;;;;;;;11.73;9.15;;;;;;;20.57;76.98;97638.67;1688496;84;21455;-74
2021/07/11 06:12:39;;;;;;;12.05;8.73;;;;;;;20.63;77.11;97639.55;1697371;84;21056;-74
2021/07/11 06:15:08;;;;;;;13.18;9.40;;;;;;;20.73;77.19;97641.53;1687735;84;21036;-74
2021/07/11 06:17:35;;;;;;;11.43;9.20;;;;;;;20.82;76.97;97635.44;1675454;86;21016;-74
2021/07/11 06:20:06;;;;;;;11.33;8.38;;;;;;;20.93;77.12;97635.48;1700694;84;21020;-74
2021/07/11 06:22:33;;;;;;;10.38;9.10;;;;;;;21.03;76.86;97641.02;1701649;84;21017;-74
2021/07/11 06:25:06;;;;;;;10.15;9.05;;;;;;;21.13;76.60;97633.05;1696212;84;21061;-74
2021/07/11 06:27:28;;;;;;;11.78;9.55;;;;;;;21.23;75.99;97632.69;1685857;85;21018;-74
2021/07/11 06:29:54;;;;;;;9.68;8.78;;;;;;;21.32;75.84;97628.42;1726654;82;21044;-74
2021/07/11 06:32:21;;;;;;;10.68;8.80;;;;;;;21.42;75.60;97626.34;1715234;82;21010;-74
2021/07/11 06:34:47;;;;;;;10.13;9.13;;;;;;;21.53;75.35;97629.50;1715759;84;21056;-74
2021/07/11 06:37:16;;;;;;;13.30;9.03;;;;;;;21.61;74.65;97619.83;1715701;84;20990;-74
2021/07/11 06:39:43;;;;;;;15.00;9.13;;;;;;;21.72;72.55;97619.47;1715842;84;21041;-74
2021/07/11 06:42:09;;;;;;;10.30;9.20;;;;;;;21.76;73.22;97614.20;1715732;84;20938;-75
2021/07/11 06:44:35;;;;;;;10.38;8.58;;;;;;;21.85;73.24;97616.63;1715824;84;21006;-74
2021/07/11 06:47:03;;;;;;;14.80;9.10;;;;;;;21.93;73.36;97617.34;1715865;84;21016;-74
2021/07/11 06:49:31;;;;;;;14.15;9.23;;;;;;;22.02;73.23;97621.47;1713447;83;21010;-74
2021/07/11 06:51:58;;;;;;;11.85;9.03;;;;;;;22.12;72.71;97618.00;1713625;84;20985;-74
2021/07/11 06:54:24;;;;;;;10.70;9.18;;;;;;;22.21;72.40;97621.28;1713619;82;21041;-75
2021/07/11 06:56:51;;;;;;;10.25;9.00;;;;;;;22.28;71.75;97619.80;1714058;82;21032;-75
2021/07/11 06:59:17;;;;;;;10.28;8.70;;;;;;;22.36;70.48;97619.16;1740717;82;21041;-75
2021/07/11 07:01:44;;;;;;;10.25;8.98;;;;;;;22.42;70.20;97617.28;1707396;84;21398;-75
2021/07/11 07:04:10;;;;;;;10.70;9.38;;;;;;;22.52;70.63;97623.25;1707245;83;21053;-74
2021/07/11 07:06:37;;;;;;;11.48;9.53;;;;;;;22.59;70.59;97616.35;1693867;84;20981;-75
2021/07/11 07:09:04;;;;;;;14.58;9.78;;;;;;;22.68;70.23;97621.48;1693195;83;20985;-75
2021/07/11 07:11:31;;;;;;;9.98;8.95;;;;;;;22.75;70.03;97621.81;1716170;82;21437;-75
2021/07/11 07:13:57;;;;;;;13.53;9.25;;;;;;;22.83;69.97;97617.10;1718182;82;21052;-74
2021/07/11 07:16:24;;;;;;;14.00;9.13;;;;;;;22.91;69.62;97615.92;1720833;82;20977;-76
2021/07/11 07:18:50;;;;;;;10.43;9.40;;;;;;;22.98;69.63;97617.11;1696942;83;21056;-76
2021/07/11 07:21:17;;;;;;;12.47;9.58;;;;;;;23.05;69.36;97617.44;1716352;82;21009;-77
2021/07/11 07:23:44;;;;;;;13.08;11.05;;;;;;;23.13;69.29;97616.77;1721906;82;21453;-76
2021/07/11 07:26:11;;;;;;;12.03;9.85;;;;;;;23.20;69.16;97614.74;1737669;82;21364;-76
2021/07/11 07:28:40;;;;;;;12.30;9.18;;;;;;;23.29;68.61;97615.77;1734958;82;21001;-75
2021/07/11 07:31:07;;;;;;;15.03;11.18;;;;;;;23.38;69.40;97618.69;1742845;82;20973;-75
2021/07/11 07:33:34;;;;;;;13.60;10.75;;;;;;;23.45;69.00;97619.84;1742850;82;21037;-75
2021/07/11 07:36:00;;;;;;;14.30;10.72;;;;;;;23.52;68.87;97619.67;1743040;82;21522;-74
2021/07/11 07:38:27;;;;;;;11.75;9.85;;;;;;;23.59;67.85;97620.81;1716225;82;21021;-74
2021/07/11 07:40:53;;;;;;;14.28;10.58;;;;;;;23.66;68.52;97620.29;1715776;83;21017;-76
2021/07/11 07:43:19;;;;;;;12.03;10.55;;;;;;;23.71;68.79;97613.45;1715867;83;21005;-75
2021/07/11 07:45:46;;;;;;;11.35;10.15;;;;;;;23.80;68.66;97609.08;1715934;84;21478;-76
2021/07/11 07:48:13;;;;;;;11.73;10.48;;;;;;;23.91;68.90;97623.48;1715876;84;21009;-76
2021/07/11 07:50:41;;;;;;;11.60;10.25;;;;;;;23.99;68.95;97612.79;1715705;84;21068;-76
2021/07/11 07:53:08;;;;;;;21.37;18.17;;;;;;;24.06;69.08;97605.84;1715210;83;21415;-76
2021/07/11 07:55:34;;;;;;;19.92;17.87;;;;;;;24.16;69.06;97613.14;1714236;82;21056;-76
2021/07/11 07:58:03;;;;;;;14.03;12.58;;;;;;;24.23;69.02;97604.80;1714121;82;21018;-75
2021/07/11 08:00:30;;;;;;;12.35;11.05;;;;;;;24.29;69.00;97610.99;1713451;84;21053;-75
2021/07/11 08:02:56;;;;;;;13.95;10.53;;;;;;;24.34;68.81;97601.97;1713383;84;21003;-75
2021/07/11 08:05:23;;;;;;;12.78;10.72;;;;;;;24.39;68.09;97603.75;1722592;82;21498;-75
2021/07/11 08:07:49;;;;;;;13.95;11.22;;;;;;;24.53;68.30;97597.52;1748501;82;21013;-75
2021/07/11 08:10:16;;;;;;;12.30;11.00;;;;;;;24.53;68.30;97597.52;1718526;82;20992;-74
2021/07/11 08:12:45;;;;;;;13.70;11.53;;;;;;;24.57;68.05;97592.17;1713512;82;21447;-75
2021/07/11 08:15:17;;;;;;;13.32;10.18;;;;;;;24.62;68.07;97591.23;1713154;82;21073;-75
2021/07/11 08:17:49;;;;;;;12.73;11.35;;;;;;;24.67;67.96;97587.24;1713520;82;20973;-76
2021/07/11 08:20:21;;;;;;;14.43;10.30;;;;;;;24.72;67.95;97580.88;1726814;82;21025;-75
2021/07/11 08:22:49;;;;;;;12.15;10.93;;;;;;;24.78;68.30;97593.84;1714863;82;20997;-76
2021/07/11 08:25:17;;;;;;;13.25;11.22;;;;;;;24.85;68.16;97581.47;1718614;82;21004;-75
2021/07/11 08:27:46;;;;;;;12.28;11.10;;;;;;;24.95;68.54;97587.36;1731567;82;21053;-75
2021/07/11 08:30:16;;;;;;;11.95;10.68;;;;;;;25.02;67.68;97589.82;1722639;82;21014;-75
2021/07/11 08:32:45;;;;;;;11.43;10.05;;;;;;;25.07;67.91;97592.11;1743924;82;21009;-76
2021/07/11 08:35:13;;;;;;;13.75;11.08;;;;;;;25.16;68.51;97590.70;1732325;82;21067;-75
2021/07/11 08:37:39;;;;;;;19.67;17.80;;;;;;;25.24;67.87;97587.25;1728595;82;20992;-76
2021/07/11 08:40:10;;;;;;;17.65;15.38;;;;;;;25.33;67.69;97579.23;1729807;82;20958;-76
2021/07/11 08:42:42;;;;;;;12.85;11.48;;;;;;;25.42;67.25;97583.23;1732596;82;21379;-76
2021/07/11 08:45:12;;;;;;;14.53;10.53;;;;;;;25.49;67.23;97588.08;1731941;82;21420;-76
2021/07/11 08:47:40;;;;;;;11.83;10.75;;;;;;;25.54;66.64;97585.25;1722282;82;20989;-76
2021/07/11 08:50:11;;;;;;;12.43;10.55;;;;;;;25.61;66.76;97582.81;1728266;82;21414;-76
2021/07/11 08:52:39;;;;;;;10.90;9.90;;;;;;;25.70;66.11;97579.72;1739912;82;21008;-75
2021/07/11 08:55:20;;;;;;;12.33;10.30;;;;;;;25.74;66.05;97575.66;1720167;82;21044;-75
2021/07/11 08:57:53;;;;;;;11.43;10.32;;;;;;;25.83;65.86;97574.75;1731000;82;21474;-72
2021/07/11 09:00:28;;;;;;;11.43;10.23;;;;;;;25.89;65.19;97576.02;1730529;82;21025;-73
2021/07/11 09:02:55;;;;;;;11.28;10.03;;;;;;;25.95;65.03;97571.84;1731254;82;21009;-72
2021/07/11 09:05:40;;;;;;;11.03;9.93;;;;;;;26.02;64.75;97578.34;1732529;82;20973;-75
2021/07/11 09:08:23;;;;;;;11.70;10.48;;;;;;;26.08;64.52;97575.00;1732758;82;20957;-76
2021/07/11 09:10:56;;;;;;;12.40;10.45;;;;;;;26.15;64.30;97571.17;1730838;82;21009;-73
2021/07/11 09:13:27;;;;;;;10.78;9.68;;;;;;;26.18;64.02;97573.58;1726360;82;21034;-74
2021/07/11 09:15:57;;;;;;;10.95;9.40;;;;;;;26.21;63.71;97569.18;1730810;82;21153;-73
2021/07/11 09:18:30;;;;;;;13.70;10.10;;;;;;;26.30;63.85;97572.88;1730192;82;21010;-73
2021/07/11 09:21:11;;;;;;;19.42;10.65;;;;;;;26.40;63.82;97572.77;1732819;82;21051;-74
2021/07/11 09:23:40;;;;;;;18.37;15.23;;;;;;;26.55;63.07;97567.64;1731870;81;22025;-74
2021/07/11 09:26:13;;;;;;;13.08;11.15;;;;;;;26.62;62.42;97565.15;1728892;82;21041;-73
2021/07/11 09:28:51;;;;;;;13.03;9.23;;;;;;;26.70;62.39;97565.71;1724487;82;21065;-74
2021/07/11 09:31:23;;;;;;;10.63;9.55;;;;;;;26.75;62.07;97557.93;1727358;82;21415;-73
2021/07/11 09:33:57;;;;;;;10.65;9.55;;;;;;;26.84;62.53;97558.33;1723441;82;21029;-73
2021/07/11 09:36:25;;;;;;;10.48;9.53;;;;;;;26.93;62.04;97552.47;1725597;82;21463;-72
2021/07/11 09:39:00;;;;;;;10.48;9.35;;;;;;;26.99;61.79;97555.89;1728954;82;20965;-73
2021/07/11 09:41:31;;;;;;;10.03;9.13;;;;;;;27.07;61.19;97554.25;1727861;82;21006;-73
2021/07/11 09:44:00;;;;;;;9.50;8.60;;;;;;;27.13;60.46;97536.78;1685312;84;21031;-73
2021/07/11 09:46:35;;;;;;;10.68;9.68;;;;;;;27.24;60.59;97544.30;1666142;85;21506;-73
2021/07/11 09:49:05;;;;;;;12.70;9.90;;;;;;;27.26;60.54;97548.56;1695579;84;21085;-73
2021/07/11 09:51:32;;;;;;;10.18;9.20;;;;;;;27.30;60.13;97553.66;1742931;82;20985;-73
2021/07/11 09:54:11;;;;;;;10.18;8.70;;;;;;;27.39;60.59;97541.80;1742986;82;21475;-73
2021/07/11 09:56:43;;;;;;;11.63;9.43;;;;;;;27.46;60.08;97544.22;1676844;84;20966;-73
2021/07/11 09:59:13;;;;;;;11.70;8.85;;;;;;;27.62;60.86;97548.04;1664556;85;22148;-73
2021/07/11 10:01:42;;;;;;;12.30;11.00;;;;;;;27.69;59.87;97538.70;1684282;84;21033;-74
2021/07/11 10:04:10;;;;;;;11.28;9.73;;;;;;;27.75;59.45;97538.89;1682172;85;21013;-75
2021/07/11 10:06:39;;;;;;;10.00;9.05;;;;;;;27.82;59.12;97531.41;1737030;82;21006;-75
2021/07/11 10:09:08;;;;;;;11.10;9.10;;;;;;;27.88;58.55;97538.41;1715844;83;20986;-75
2021/07/11 10:11:35;;;;;;;10.28;9.28;;;;;;;27.96;58.04;97528.53;1723769;82;21023;-76
2021/07/11 10:14:02;;;;;;;11.60;9.58;;;;;;;28.02;58.04;97532.80;1652196;85;20978;-75
2021/07/11 10:16:30;;;;;;;11.85;10.75;;;;;;;28.09;57.62;97532.12;1734386;82;20977;-75
2021/07/11 10:19:01;;;;;;;11.78;10.50;;;;;;;28.13;57.97;97529.40;1715612;84;21017;-73
2021/07/11 10:21:32;;;;;;;10.93;9.83;;;;;;;28.23;57.91;97519.19;1721731;82;21017;-72
2021/07/11 10:24:00;;;;;;;9.70;8.80;;;;;;;28.32;56.20;97521.45;1725074;82;20941;-73
2021/07/11 10:26:39;;;;;;;18.65;11.48;;;;;;;28.46;56.76;97523.48;1721197;82;20989;-74
2021/07/11 10:29:17;;;;;;;11.10;9.95;;;;;;;28.57;55.33;97526.35;1735973;82;21008;-75
2021/07/11 10:31:51;;;;;;;14.55;11.60;;;;;;;28.68;55.75;97530.61;1731581;82;21013;-74
2021/07/11 10:34:33;;;;;;;11.10;9.90;;;;;;;28.88;55.57;97526.16;1729577;82;20978;-74
2021/07/11 10:37:25;;;;;;;10.00;9.00;;;;;;;29.02;54.94;97519.66;1737011;82;21048;-74
2021/07/11 10:40:07;;;;;;;11.28;9.40;;;;;;;29.15;53.69;97528.14;1749487;82;21394;-75
2021/07/11 10:42:33;;;;;;;11.18;8.95;;;;;;;29.25;52.44;97523.83;1750728;82;21498;-74
2021/07/11 10:45:07;;;;;;;12.07;9.78;;;;;;;29.42;52.06;97533.30;1733212;82;20959;-75
2021/07/11 10:47:35;;;;;;;22.52;17.00;;;;;;;29.69;52.25;97532.02;1680476;85;21072;-75
2021/07/11 10:50:04;;;;;;;18.20;12.85;;;;;;;30.25;51.98;97540.55;1750878;82;21004;-74
2021/07/11 10:52:32;;;;;;;8.75;7.85;;;;;;;31.29;49.77;97534.57;1726925;82;21085;-75
2021/07/11 10:55:00;;;;;;;8.75;7.75;;;;;;;32.25;47.25;97530.02;1717830;83;21017;-75
2021/07/11 10:57:36;;;;;;;10.23;7.60;;;;;;;32.40;46.67;97536.30;1682828;84;21006;-74
2021/07/11 11:00:20;;;;;;;11.57;8.40;;;;;;;32.17;45.66;97528.27;1735270;82;20976;-74
2021/07/11 11:02:51;;;;;;;9.43;8.43;;;;;;;31.94;46.29;97525.21;1685888;85;21047;-74
2021/07/11 11:05:23;;;;;;;11.28;8.00;;;;;;;32.27;46.39;97520.55;1684582;85;21034;-74
2021/07/11 11:08:09;;;;;;;8.65;7.78;;;;;;;33.16;43.94;97515.23;1689925;85;21028;-74
2021/07/11 11:10:38;;;;;;;11.35;9.40;;;;;;;33.82;42.96;97511.11;1747114;82;20996;-74
2021/07/11 11:13:24;;;;;;;8.98;7.45;;;;;;;34.41;42.62;97523.50;1719529;83;21124;-74
2021/07/11 11:16:00;;;;;;;11.68;9.60;;;;;;;35.05;40.23;97518.38;1724956;82;21016;-75
2021/07/11 11:18:38;;;;;;;9.55;8.65;;;;;;;35.75;39.33;97518.81;1721055;83;20989;-75
2021/07/11 11:21:14;;;;;;;8.55;7.80;;;;;;;36.04;37.20;97511.01;1724354;82;21439;-74
2021/07/11 11:23:50;;;;;;;8.23;7.42;;;;;;;36.20;36.87;97505.52;1741822;82;21529;-75
2021/07/11 11:26:20;;;;;;;;;;;;;;;36.27;33.62;97502.69;1744836;82;21494;-73
2021/07/11 11:28:50;;;;;;;8.13;7.33;;;;;;;36.05;34.06;97501.14;1731833;82;20095;-74
2021/07/11 11:31:24;;;;;;;9.60;7.95;;;;;;;35.41;36.98;97494.14;1748051;81;21025;-74
2021/07/11 11:34:01;;;;;;;8.68;7.80;;;;;;;34.63;37.90;97501.59;1736200;83;21049;-75
2021/07/11 11:36:35;;;;;;;10.80;9.83;;;;;;;34.35;38.99;97512.28;1730189;82;21478;-78